Time;durP1;ratioP1;P1;durP2;ratioP2;P2;SDS_P1;SDS_P2;PMS_P1;PMS_P2;Temp;Humidity;BMP_temperature;BMP_pressure;BME280_temperature;BME280_humidity;BME280_pressure;Samples;Min_cycle;Max_cycle;Signal;HPM_P1;HPM_P2
2021/11/07 00:02:52;;;;;;;;;;;14.70;99.90;;;;;;2082301;28;830;-56
2021/11/07 00:07:24;;;;;;;;;;;14.70;99.90;;;;;;2065897;28;1910;-63
2021/11/07 00:09:05;;;;;;;;;;;14.70;99.90;;;;;;2066421;28;622;-60
2021/11/07 00:12:19;;;;;;;;;;;14.70;99.90;;;;;;2044784;29;1514;-59
2021/11/07 00:13:39;;;;;;;;;;;14.70;99.90;;;;;;2073881;28;731;-60
2021/11/07 00:14:58;;;;;;;;;;;14.70;99.90;;;;;;2074456;28;574;-61
2021/11/07 00:16:23;;;;;;;;;;;14.70;99.90;;;;;;2065077;28;797;-60
2021/11/07 00:17:49;;;;;;;;;;;14.70;99.90;;;;;;2071694;28;696;-63
2021/11/07 00:19:12;;;;;;;;;;;14.70;99.90;;;;;;2074365;28;689;-62
2021/11/07 00:20:32;;;;;;;;;;;14.70;99.90;;;;;;2073955;28;1620;-59
2021/11/07 00:25:13;;;;;;;;;;;14.60;99.90;;;;;;2065435;28;590;-61
2021/11/07 00:26:37;;;;;;;;;;;14.60;99.90;;;;;;2065382;28;1962;-62
2021/11/07 00:28:01;;;;;;;;;;;14.60;99.90;;;;;;2057396;28;582;-63
2021/11/07 00:29:33;;;;;;;;;;;14.60;99.90;;;;;;2057701;28;618;-60
2021/11/07 00:31:05;;;;;;;;;;;14.60;99.90;;;;;;2065619;28;1284;-61
2021/11/07 00:32:49;;;;;;;;;;;14.60;99.90;;;;;;2053214;28;1344;-63
2021/11/07 00:35:51;;;;;;;;;;;14.60;99.90;;;;;;2065568;28;646;-59
2021/11/07 00:37:13;;;;;;;;;;;14.60;99.90;;;;;;2065317;28;996;-60
2021/11/07 00:38:42;;;;;;;;;;;14.60;99.90;;;;;;2058374;28;1442;-61
2021/11/07 00:42:29;;;;;;;;;;;14.60;99.90;;;;;;2065586;28;1624;-60
2021/11/07 00:43:42;;;;;;;;;;;14.60;99.90;;;;;;2065331;28;1063;-59
2021/11/07 00:45:07;;;;;;;;;;;14.60;99.90;;;;;;2065390;28;742;-58
2021/11/07 00:49:41;;;;;;;;;;;14.60;99.90;;;;;;2072336;28;751;-59
2021/11/07 00:52:35;;;;;;;;;;;14.60;99.90;;;;;;2068061;28;1953;-62
2021/11/07 00:54:12;;;;;;;;;;;14.60;99.90;;;;;;2065696;28;673;-62
2021/11/07 00:55:43;;;;;;;;;;;14.60;99.90;;;;;;2065264;28;626;-61
2021/11/07 00:57:15;;;;;;;;;;;14.60;99.90;;;;;;2065569;28;694;-60
2021/11/07 00:58:38;;;;;;;;;;;14.50;99.90;;;;;;2065873;28;622;-62
2021/11/07 01:00:01;;;;;;;;;;;14.50;99.90;;;;;;2065340;28;1454;-62
2021/11/07 01:01:25;;;;;;;;;;;14.50;99.90;;;;;;2078214;28;837;-59
2021/11/07 01:02:44;;;;;;;;;;;14.50;99.90;;;;;;2081280;28;1570;-63
2021/11/07 01:04:05;;;;;;;;;;;14.50;99.90;;;;;;2065342;28;614;-62
2021/11/07 01:05:26;;;;;;;;;;;14.50;99.90;;;;;;2062268;28;1593;-61
2021/11/07 01:06:46;;;;;;;;;;;14.50;99.90;;;;;;2061825;28;1906;-63
2021/11/07 01:08:06;;;;;;;;;;;14.50;99.90;;;;;;2070381;28;676;-60
2021/11/07 01:09:25;;;;;;;;;;;14.50;99.90;;;;;;2073858;28;714;-60
2021/11/07 01:10:44;;;;;;;;;;;14.50;99.90;;;;;;2073965;28;1455;-59
2021/11/07 01:12:04;;;;;;;;;;;14.50;99.90;;;;;;2073416;28;1644;-60
2021/11/07 01:13:23;;;;;;;;;;;14.50;99.90;;;;;;2074048;28;673;-63
2021/11/07 01:14:42;;;;;;;;;;;14.50;99.90;;;;;;2074080;28;617;-62
2021/11/07 01:16:02;;;;;;;;;;;14.50;99.90;;;;;;2073772;28;715;-61
2021/11/07 01:17:21;;;;;;;;;;;14.50;99.90;;;;;;2073896;28;645;-62
2021/11/07 01:18:40;;;;;;;;;;;14.50;99.90;;;;;;2074184;28;689;-61
2021/11/07 01:20:00;;;;;;;;;;;14.50;99.90;;;;;;2073690;28;1293;-59
2021/11/07 01:21:19;;;;;;;;;;;14.50;99.90;;;;;;2073972;28;638;-60
2021/11/07 01:22:53;;;;;;;;;;;14.50;99.90;;;;;;2066964;28;1355;-62
2021/11/07 01:24:21;;;;;;;;;;;14.50;99.90;;;;;;2065685;28;738;-63
2021/11/07 01:25:45;;;;;;;;;;;14.50;99.90;;;;;;2065770;28;692;-62
2021/11/07 01:27:28;;;;;;;;;;;14.50;99.90;;;;;;2065389;28;1974;-59
2021/11/07 01:28:50;;;;;;;;;;;14.50;99.90;;;;;;2066000;28;707;-60
2021/11/07 01:30:14;;;;;;;;;;;14.40;99.90;;;;;;2065799;28;1380;-59
2021/11/07 01:31:35;;;;;;;;;;;14.50;99.90;;;;;;2077717;28;591;-62
2021/11/07 01:33:03;;;;;;;;;;;14.40;99.90;;;;;;2067183;28;918;-63
2021/11/07 01:34:37;;;;;;;;;;;14.40;99.90;;;;;;2081935;28;749;-62
2021/11/07 01:37:21;;;;;;;;;;;14.40;99.90;;;;;;2072711;28;630;-62
2021/11/07 01:38:45;;;;;;;;;;;14.40;99.90;;;;;;2065176;28;794;-63
2021/11/07 01:40:12;;;;;;;;;;;14.40;99.90;;;;;;2062795;28;1357;-62
2021/11/07 01:41:39;;;;;;;;;;;14.40;99.90;;;;;;2071645;28;602;-62
2021/11/07 01:42:59;;;;;;;;;;;14.40;99.90;;;;;;2065544;28;787;-62
2021/11/07 01:44:19;;;;;;;;;;;14.40;99.90;;;;;;2065155;28;686;-63
2021/11/07 01:45:46;;;;;;;;;;;14.40;99.90;;;;;;2057107;28;606;-61
2021/11/07 01:47:06;;;;;;;;;;;14.40;99.90;;;;;;2058194;28;1968;-61
2021/11/07 01:48:28;;;;;;;;;;;14.40;99.90;;;;;;2070124;28;693;-63
2021/11/07 01:49:47;;;;;;;;;;;14.40;99.90;;;;;;2065113;28;611;-63
2021/11/07 01:51:06;;;;;;;;;;;14.40;99.90;;;;;;2065008;28;787;-62
2021/11/07 01:52:26;;;;;;;;;;;14.40;99.90;;;;;;2064438;28;1643;-64
2021/11/07 01:53:45;;;;;;;;;;;14.40;99.90;;;;;;2070298;28;626;-61
2021/11/07 01:55:05;;;;;;;;;;;14.40;99.90;;;;;;2073546;28;689;-60
2021/11/07 01:56:24;;;;;;;;;;;14.40;99.90;;;;;;2073037;28;614;-59
2021/11/07 01:57:43;;;;;;;;;;;14.40;99.90;;;;;;2064982;28;579;-61
2021/11/07 01:59:02;;;;;;;;;;;14.30;99.90;;;;;;2069844;28;703;-61
2021/11/07 02:00:23;;;;;;;;;;;14.40;99.90;;;;;;2060392;28;1912;-61
2021/11/07 02:01:42;;;;;;;;;;;14.40;99.90;;;;;;2076374;28;1089;-64
2021/11/07 02:03:01;;;;;;;;;;;14.40;99.90;;;;;;2060530;28;922;-62
2021/11/07 02:04:21;;;;;;;;;;;14.40;99.90;;;;;;2078328;28;694;-61
2021/11/07 02:05:40;;;;;;;;;;;14.40;99.90;;;;;;2081479;28;654;-62
2021/11/07 02:06:59;;;;;;;;;;;14.30;99.90;;;;;;2080269;28;1907;-60
2021/11/07 02:08:19;;;;;;;;;;;14.30;99.90;;;;;;2081942;28;610;-62
2021/11/07 02:09:37;;;;;;;;;;;14.30;99.90;;;;;;2081825;28;704;-60
2021/11/07 02:10:57;;;;;;;;;;;14.40;99.90;;;;;;2066730;28;2084;-63
2021/11/07 02:12:16;;;;;;;;;;;14.40;99.90;;;;;;2069436;28;1623;-60
2021/11/07 02:13:35;;;;;;;;;;;14.30;99.90;;;;;;2075465;28;1369;-63
2021/11/07 02:14:54;;;;;;;;;;;14.30;99.90;;;;;;2073723;28;674;-60
2021/11/07 02:16:13;;;;;;;;;;;14.30;99.90;;;;;;2064538;28;599;-63
2021/11/07 02:17:32;;;;;;;;;;;14.40;99.90;;;;;;2069833;28;754;-62
2021/11/07 02:18:52;;;;;;;;;;;14.40;99.90;;;;;;2065061;28;746;-60
2021/11/07 02:20:12;;;;;;;;;;;14.30;99.90;;;;;;2070318;28;1443;-63
2021/11/07 02:21:32;;;;;;;;;;;14.30;99.90;;;;;;2058899;28;1324;-61
2021/11/07 02:22:51;;;;;;;;;;;14.30;99.90;;;;;;2066963;28;1483;-61
2021/11/07 02:24:15;;;;;;;;;;;14.30;99.90;;;;;;2056420;28;1838;-62
2021/11/07 02:25:34;;;;;;;;;;;14.30;99.90;;;;;;2067847;28;731;-60
2021/11/07 02:26:57;;;;;;;;;;;14.30;99.90;;;;;;2064319;28;1903;-61
2021/11/07 02:28:43;;;;;;;;;;;14.30;99.90;;;;;;2061444;28;1677;-59
2021/11/07 02:30:02;;;;;;;;;;;14.30;99.90;;;;;;2073465;28;1329;-60
2021/11/07 02:31:23;;;;;;;;;;;14.30;99.90;;;;;;2069549;28;945;-62
2021/11/07 02:32:43;;;;;;;;;;;14.30;99.90;;;;;;2071876;28;1483;-61
2021/11/07 02:34:02;;;;;;;;;;;14.30;99.90;;;;;;2060632;28;882;-61
2021/11/07 02:35:21;;;;;;;;;;;14.40;99.90;;;;;;2073590;28;1044;-61
2021/11/07 02:36:46;;;;;;;;;;;14.30;99.90;;;;;;2079970;28;1012;-63
2021/11/07 02:38:05;;;;;;;;;;;14.30;99.90;;;;;;2072721;28;801;-61
2021/11/07 02:39:24;;;;;;;;;;;14.30;99.90;;;;;;2053987;28;598;-63
2021/11/07 02:40:43;;;;;;;;;;;14.30;99.90;;;;;;2056445;28;1388;-62
2021/11/07 02:42:03;;;;;;;;;;;14.30;99.90;;;;;;2062116;28;703;-64
2021/11/07 02:43:22;;;;;;;;;;;14.30;99.90;;;;;;2067468;28;1189;-60
2021/11/07 02:44:44;;;;;;;;;;;14.30;99.90;;;;;;2073446;28;762;-63
2021/11/07 02:46:03;;;;;;;;;;;14.30;99.90;;;;;;2073425;28;626;-62
2021/11/07 02:47:22;;;;;;;;;;;14.30;99.90;;;;;;2073364;28;1945;-61
2021/11/07 02:48:42;;;;;;;;;;;14.30;99.90;;;;;;2062569;28;1347;-64
2021/11/07 02:50:02;;;;;;;;;;;14.30;99.90;;;;;;2070142;28;1450;-63
2021/11/07 02:51:24;;;;;;;;;;;14.30;99.90;;;;;;2072744;28;730;-60
2021/11/07 02:52:45;;;;;;;;;;;14.30;99.90;;;;;;2064628;28;860;-61
2021/11/07 02:54:05;;;;;;;;;;;14.30;99.90;;;;;;2069846;28;630;-62
2021/11/07 02:55:25;;;;;;;;;;;14.30;99.90;;;;;;2056403;28;799;-61
2021/11/07 02:56:45;;;;;;;;;;;14.30;99.90;;;;;;2061075;28;701;-62
2021/11/07 02:58:04;;;;;;;;;;;14.30;99.90;;;;;;2065141;28;642;-59
2021/11/07 02:59:24;;;;;;;;;;;14.30;99.90;;;;;;2064709;28;747;-61
2021/11/07 03:00:43;;;;;;;;;;;14.30;99.90;;;;;;2056711;28;1348;-60
2021/11/07 03:02:03;;;;;;;;;;;14.30;99.90;;;;;;2071741;28;921;-61
2021/11/07 03:03:23;;;;;;;;;;;14.30;99.90;;;;;;2073771;28;1134;-59
2021/11/07 03:04:42;;;;;;;;;;;14.30;99.90;;;;;;2061267;28;735;-65
2021/11/07 03:06:01;;;;;;;;;;;14.30;99.90;;;;;;2068531;28;715;-60
2021/11/07 03:07:21;;;;;;;;;;;14.30;99.90;;;;;;2069976;28;1910;-62
2021/11/07 03:08:48;;;;;;;;;;;14.20;99.90;;;;;;2069341;28;783;-61
2021/11/07 03:10:07;;;;;;;;;;;14.20;99.90;;;;;;2069305;28;1311;-62
2021/11/07 03:11:27;;;;;;;;;;;14.20;99.90;;;;;;2061532;28;633;-63
2021/11/07 03:12:46;;;;;;;;;;;14.20;99.90;;;;;;2068344;28;708;-60
2021/11/07 03:14:06;;;;;;;;;;;14.30;99.90;;;;;;2070259;28;1477;-63
2021/11/07 03:15:25;;;;;;;;;;;14.20;99.90;;;;;;2072090;28;742;-61
2021/11/07 03:16:45;;;;;;;;;;;14.20;99.90;;;;;;2071781;28;770;-60
2021/11/07 03:18:05;;;;;;;;;;;14.20;99.90;;;;;;2071558;28;735;-62
2021/11/07 03:19:25;;;;;;;;;;;14.20;99.90;;;;;;2071134;28;733;-63
2021/11/07 03:20:44;;;;;;;;;;;14.20;99.90;;;;;;2072037;28;1374;-61
2021/11/07 03:22:08;;;;;;;;;;;14.20;99.90;;;;;;2065028;28;1466;-61
2021/11/07 03:23:27;;;;;;;;;;;14.20;99.90;;;;;;2064225;28;723;-61
2021/11/07 03:24:52;;;;;;;;;;;14.20;99.90;;;;;;2066294;28;693;-61
2021/11/07 03:26:14;;;;;;;;;;;14.20;99.90;;;;;;2049456;29;742;-63
2021/11/07 03:27:39;;;;;;;;;;;14.20;99.90;;;;;;2068939;28;1127;-62
2021/11/07 03:29:02;;;;;;;;;;;14.20;99.90;;;;;;2074787;28;942;-62
2021/11/07 03:30:34;;;;;;;;;;;14.20;99.90;;;;;;2065810;28;1626;-61
2021/11/07 03:32:02;;;;;;;;;;;14.20;99.90;;;;;;2079958;28;917;-60
2021/11/07 03:33:45;;;;;;;;;;;14.20;99.90;;;;;;2070416;28;1068;-63
2021/11/07 03:35:06;;;;;;;;;;;14.20;99.90;;;;;;2082418;28;718;-60
2021/11/07 03:36:25;;;;;;;;;;;14.20;99.90;;;;;;2081968;28;685;-60
2021/11/07 03:37:55;;;;;;;;;;;14.20;99.90;;;;;;2082472;28;1458;-60
2021/11/07 03:39:14;;;;;;;;;;;14.20;99.90;;;;;;2073589;28;1334;-59
2021/11/07 03:40:35;;;;;;;;;;;14.20;99.90;;;;;;2065540;28;1424;-61
2021/11/07 03:41:54;;;;;;;;;;;14.20;99.90;;;;;;2062987;28;587;-62
2021/11/07 03:43:13;;;;;;;;;;;14.20;99.90;;;;;;2062299;28;662;-62
2021/11/07 03:44:33;;;;;;;;;;;14.20;99.90;;;;;;2070749;28;634;-62
2021/11/07 03:45:52;;;;;;;;;;;14.20;99.90;;;;;;2074205;28;606;-63
2021/11/07 03:47:12;;;;;;;;;;;14.20;99.90;;;;;;2073312;28;1910;-61
2021/11/07 03:48:31;;;;;;;;;;;14.20;99.90;;;;;;2064406;28;1654;-61
2021/11/07 03:49:50;;;;;;;;;;;14.20;99.90;;;;;;2070928;28;599;-62
2021/11/07 03:51:13;;;;;;;;;;;14.20;99.90;;;;;;2074462;28;740;-60
2021/11/07 03:52:32;;;;;;;;;;;14.20;99.90;;;;;;2071768;28;1637;-61
2021/11/07 03:53:51;;;;;;;;;;;14.20;99.90;;;;;;2057828;28;646;-62
2021/11/07 03:55:10;;;;;;;;;;;14.20;99.90;;;;;;2062631;28;699;-59
2021/11/07 03:56:30;;;;;;;;;;;14.20;99.90;;;;;;2057128;28;594;-61
2021/11/07 03:57:49;;;;;;;;;;;14.20;99.90;;;;;;2062910;28;635;-62
2021/11/07 03:59:08;;;;;;;;;;;14.20;99.90;;;;;;2066439;28;714;-63
2021/11/07 04:00:27;;;;;;;;;;;14.20;99.90;;;;;;2066448;28;1342;-60
2021/11/07 04:01:47;;;;;;;;;;;14.20;99.90;;;;;;2081682;28;1062;-61
2021/11/07 04:03:06;;;;;;;;;;;14.20;99.90;;;;;;2071166;28;866;-60
2021/11/07 04:04:25;;;;;;;;;;;14.20;99.90;;;;;;2058412;28;1718;-60
2021/11/07 04:05:44;;;;;;;;;;;14.20;99.90;;;;;;2070124;28;1080;-61
2021/11/07 04:07:04;;;;;;;;;;;14.20;99.90;;;;;;2072731;28;1914;-59
2021/11/07 04:08:23;;;;;;;;;;;14.20;99.90;;;;;;2066064;28;1075;-63
2021/11/07 04:09:42;;;;;;;;;;;14.20;99.90;;;;;;2062865;28;618;-62
2021/11/07 04:11:01;;;;;;;;;;;14.20;99.90;;;;;;2071120;28;749;-63
2021/11/07 04:12:21;;;;;;;;;;;14.20;99.90;;;;;;2065983;28;688;-59
2021/11/07 04:13:40;;;;;;;;;;;14.20;99.90;;;;;;2071175;28;610;-59
2021/11/07 04:15:00;;;;;;;;;;;14.20;99.90;;;;;;2073732;28;740;-63
2021/11/07 04:16:20;;;;;;;;;;;14.20;99.90;;;;;;2073882;28;641;-61
2021/11/07 04:17:39;;;;;;;;;;;14.20;99.90;;;;;;2072462;28;740;-59
2021/11/07 04:18:58;;;;;;;;;;;14.20;99.90;;;;;;2073842;28;728;-60
2021/11/07 04:20:18;;;;;;;;;;;14.20;99.90;;;;;;2064943;28;1495;-61
2021/11/07 04:21:38;;;;;;;;;;;14.20;99.90;;;;;;2064462;28;1668;-65
2021/11/07 04:22:57;;;;;;;;;;;14.20;99.90;;;;;;2061971;28;757;-62
2021/11/07 04:24:17;;;;;;;;;;;14.20;99.90;;;;;;2066002;28;1413;-65
2021/11/07 04:25:36;;;;;;;;;;;14.20;99.90;;;;;;2066804;28;1905;-63
2021/11/07 04:26:55;;;;;;;;;;;14.20;99.90;;;;;;2063543;28;1910;-62
2021/11/07 04:28:14;;;;;;;;;;;14.20;99.90;;;;;;2063794;28;970;-61
2021/11/07 04:29:34;;;;;;;;;;;14.20;99.90;;;;;;2063799;28;744;-62
2021/11/07 04:30:54;;;;;;;;;;;14.20;99.90;;;;;;2066328;28;1458;-60
2021/11/07 04:32:13;;;;;;;;;;;14.20;99.90;;;;;;2077920;28;1172;-62
2021/11/07 04:33:32;;;;;;;;;;;14.20;99.90;;;;;;2064809;28;1267;-64
2021/11/07 04:34:51;;;;;;;;;;;14.20;99.90;;;;;;2069020;28;1132;-60
2021/11/07 04:36:11;;;;;;;;;;;14.10;99.90;;;;;;2064945;28;1476;-60
2021/11/07 04:37:30;;;;;;;;;;;14.20;99.90;;;;;;2065817;28;1350;-62
2021/11/07 04:38:49;;;;;;;;;;;14.10;99.90;;;;;;2072250;28;1142;-62
2021/11/07 04:40:09;;;;;;;;;;;14.10;99.90;;;;;;2063927;28;1428;-62
2021/11/07 04:41:28;;;;;;;;;;;14.10;99.90;;;;;;2070111;28;1676;-62
2021/11/07 04:42:47;;;;;;;;;;;14.10;99.90;;;;;;2074223;28;1165;-59
2021/11/07 04:44:06;;;;;;;;;;;14.10;99.90;;;;;;2074221;28;1385;-62
2021/11/07 04:45:25;;;;;;;;;;;14.20;99.90;;;;;;2072380;28;1075;-62
2021/11/07 04:46:45;;;;;;;;;;;14.20;99.90;;;;;;2055720;28;1906;-60
2021/11/07 04:48:05;;;;;;;;;;;14.20;99.90;;;;;;2061097;28;1149;-62
2021/11/07 04:49:24;;;;;;;;;;;14.10;99.90;;;;;;2060596;28;1115;-64
2021/11/07 04:50:46;;;;;;;;;;;14.10;99.90;;;;;;2069974;28;1514;-63
2021/11/07 04:52:05;;;;;;;;;;;14.10;99.90;;;;;;2076338;28;1170;-62
2021/11/07 04:53:24;;;;;;;;;;;14.20;99.90;;;;;;2074382;28;1195;-63
2021/11/07 04:54:43;;;;;;;;;;;14.10;99.90;;;;;;2074301;28;1460;-62
2021/11/07 04:56:03;;;;;;;;;;;14.10;99.90;;;;;;2074151;28;1289;-62
2021/11/07 04:57:22;;;;;;;;;;;14.10;99.90;;;;;;2079219;28;1246;-65
2021/11/07 04:58:41;;;;;;;;;;;14.10;99.90;;;;;;2074526;28;1598;-61
2021/11/07 05:00:00;;;;;;;;;;;14.10;99.90;;;;;;2074683;28;1434;-63
2021/11/07 05:01:20;;;;;;;;;;;14.10;99.90;;;;;;2067229;28;1266;-61
2021/11/07 05:02:39;;;;;;;;;;;14.10;99.90;;;;;;2071599;28;1065;-63
2021/11/07 05:03:58;;;;;;;;;;;14.10;99.90;;;;;;2074565;28;1437;-63
2021/11/07 05:05:18;;;;;;;;;;;14.10;99.90;;;;;;2074046;28;1625;-62
2021/11/07 05:06:37;;;;;;;;;;;14.10;99.90;;;;;;2065622;28;1977;-62
2021/11/07 05:07:56;;;;;;;;;;;14.10;99.90;;;;;;2070410;28;1173;-63
2021/11/07 05:09:15;;;;;;;;;;;14.10;99.90;;;;;;2063911;28;1273;-62
2021/11/07 05:10:35;;;;;;;;;;;14.10;99.90;;;;;;2070915;28;1450;-63
2021/11/07 05:11:54;;;;;;;;;;;14.10;99.90;;;;;;2076699;28;1163;-60
2021/11/07 05:13:13;;;;;;;;;;;14.10;99.90;;;;;;2078880;28;1235;-63
2021/11/07 05:14:33;;;;;;;;;;;14.10;99.90;;;;;;2075399;28;1314;-60
2021/11/07 05:15:52;;;;;;;;;;;14.10;99.90;;;;;;2065404;28;925;-62
2021/11/07 05:17:11;;;;;;;;;;;14.10;99.90;;;;;;2068675;28;861;-62
2021/11/07 05:18:31;;;;;;;;;;;14.10;99.90;;;;;;2066126;28;1031;-59
2021/11/07 05:19:50;;;;;;;;;;;14.10;99.90;;;;;;2062049;28;931;-61
2021/11/07 05:21:09;;;;;;;;;;;14.10;99.90;;;;;;2055757;28;1024;-60
2021/11/07 05:22:28;;;;;;;;;;;14.10;99.90;;;;;;2067853;28;1045;-63
2021/11/07 05:23:48;;;;;;;;;;;14.10;99.90;;;;;;2073042;28;935;-64
2021/11/07 05:25:07;;;;;;;;;;;14.10;99.90;;;;;;2068294;28;1206;-61
2021/11/07 05:26:27;;;;;;;;;;;14.10;99.90;;;;;;2070446;28;841;-64
2021/11/07 05:27:46;;;;;;;;;;;14.10;99.90;;;;;;2073102;28;828;-62
2021/11/07 05:29:05;;;;;;;;;;;14.10;99.90;;;;;;2063483;28;883;-61
2021/11/07 05:30:24;;;;;;;;;;;14.10;99.90;;;;;;2071080;28;1325;-61
2021/11/07 05:31:44;;;;;;;;;;;14.10;99.90;;;;;;2071906;28;1198;-61
2021/11/07 05:33:03;;;;;;;;;;;14.10;99.90;;;;;;2072685;28;1108;-60
2021/11/07 05:34:22;;;;;;;;;;;14.10;99.90;;;;;;2072822;28;924;-62
2021/11/07 05:35:41;;;;;;;;;;;14.10;99.90;;;;;;2062557;28;1227;-61
2021/11/07 05:37:00;;;;;;;;;;;14.10;99.90;;;;;;2068566;28;890;-62
2021/11/07 05:38:20;;;;;;;;;;;14.10;99.90;;;;;;2074084;28;985;-62
2021/11/07 05:39:39;;;;;;;;;;;14.10;99.90;;;;;;2058493;28;932;-62
2021/11/07 05:40:59;;;;;;;;;;;14.10;99.90;;;;;;2060853;28;1516;-62
2021/11/07 05:42:18;;;;;;;;;;;14.10;99.90;;;;;;2072481;28;981;-62
2021/11/07 05:43:38;;;;;;;;;;;14.10;99.90;;;;;;2065621;28;1147;-57
2021/11/07 05:44:57;;;;;;;;;;;14.10;99.90;;;;;;2060727;28;929;-63
2021/11/07 05:46:16;;;;;;;;;;;14.10;99.90;;;;;;2068550;28;1118;-62
2021/11/07 05:47:36;;;;;;;;;;;14.10;99.90;;;;;;2076765;28;1230;-63
2021/11/07 05:48:55;;;;;;;;;;;14.10;99.90;;;;;;2053976;28;1206;-62
2021/11/07 05:50:14;;;;;;;;;;;14.10;99.90;;;;;;2060929;28;1373;-63
2021/11/07 05:51:34;;;;;;;;;;;14.10;99.90;;;;;;2065786;28;1428;-59
2021/11/07 05:52:53;;;;;;;;;;;14.10;99.90;;;;;;2059725;28;1394;-62
2021/11/07 05:54:13;;;;;;;;;;;14.10;99.90;;;;;;2056291;28;1055;-62
2021/11/07 05:55:32;;;;;;;;;;;14.10;99.90;;;;;;2055460;28;1339;-60
2021/11/07 05:56:51;;;;;;;;;;;14.10;99.90;;;;;;2066170;28;1289;-59
2021/11/07 05:58:11;;;;;;;;;;;14.10;99.90;;;;;;2063702;28;1240;-60
2021/11/07 05:59:30;;;;;;;;;;;14.10;99.90;;;;;;2060656;28;1207;-61
2021/11/07 06:00:50;;;;;;;;;;;14.10;99.90;;;;;;2068157;28;1611;-61
2021/11/07 06:02:10;;;;;;;;;;;14.10;99.90;;;;;;2061706;28;1267;-62
2021/11/07 06:03:29;;;;;;;;;;;14.10;99.90;;;;;;2060860;28;1258;-62
2021/11/07 06:04:48;;;;;;;;;;;14.10;99.90;;;;;;2064910;28;1272;-63
2021/11/07 06:06:07;;;;;;;;;;;14.10;99.90;;;;;;2072036;28;1388;-62
2021/11/07 06:07:27;;;;;;;;;;;14.10;99.90;;;;;;2063385;28;1948;-63
2021/11/07 06:08:46;;;;;;;;;;;14.10;99.90;;;;;;2073009;28;1288;-60
2021/11/07 06:10:05;;;;;;;;;;;14.10;99.90;;;;;;2057692;28;1413;-63
2021/11/07 06:11:24;;;;;;;;;;;14.10;99.90;;;;;;2060760;28;1369;-64
2021/11/07 06:12:44;;;;;;;;;;;14.10;99.90;;;;;;2068760;28;1040;-61
2021/11/07 06:14:03;;;;;;;;;;;14.10;99.90;;;;;;2073749;28;838;-62
2021/11/07 06:15:22;;;;;;;;;;;14.10;99.90;;;;;;2055991;28;1187;-61
2021/11/07 06:16:41;;;;;;;;;;;14.10;99.90;;;;;;2071420;28;1258;-62
2021/11/07 06:18:01;;;;;;;;;;;14.10;99.90;;;;;;2062643;28;1618;-60
2021/11/07 06:19:20;;;;;;;;;;;14.10;99.90;;;;;;2069164;28;1150;-62
2021/11/07 06:20:39;;;;;;;;;;;14.10;99.90;;;;;;2074211;28;1401;-62
2021/11/07 06:21:58;;;;;;;;;;;14.10;99.90;;;;;;2063057;28;1446;-61
2021/11/07 06:23:18;;;;;;;;;;;14.10;99.90;;;;;;2060553;28;1248;-62
2021/11/07 06:24:37;;;;;;;;;;;14.10;99.90;;;;;;2070285;28;1893;-61
2021/11/07 06:25:56;;;;;;;;;;;14.10;99.90;;;;;;2066088;28;1300;-60
2021/11/07 06:27:15;;;;;;;;;;;14.10;99.90;;;;;;2074360;28;1902;-61
2021/11/07 06:28:35;;;;;;;;;;;14.10;99.90;;;;;;2074960;28;1620;-63
2021/11/07 06:29:54;;;;;;;;;;;14.10;99.90;;;;;;2073136;28;1172;-62
2021/11/07 06:31:13;;;;;;;;;;;14.20;99.90;;;;;;2066140;28;1290;-61
2021/11/07 06:32:32;;;;;;;;;;;14.20;99.90;;;;;;2071245;28;1123;-59
2021/11/07 06:33:52;;;;;;;;;;;14.20;99.90;;;;;;2064215;28;1328;-63
2021/11/07 06:35:11;;;;;;;;;;;14.20;99.90;;;;;;2054985;28;1358;-62
2021/11/07 06:36:30;;;;;;;;;;;14.20;99.90;;;;;;2068562;28;1276;-62
2021/11/07 06:37:49;;;;;;;;;;;14.20;99.90;;;;;;2056849;28;1279;-62
2021/11/07 06:39:09;;;;;;;;;;;14.20;99.90;;;;;;2067002;28;1478;-62
2021/11/07 06:40:28;;;;;;;;;;;14.20;99.90;;;;;;2066647;28;1412;-62
2021/11/07 06:41:47;;;;;;;;;;;14.20;99.90;;;;;;2071231;28;1034;-63
2021/11/07 06:43:07;;;;;;;;;;;14.20;99.90;;;;;;2074080;28;1216;-64
2021/11/07 06:44:26;;;;;;;;;;;14.20;99.90;;;;;;2064400;28;1109;-62
2021/11/07 06:45:46;;;;;;;;;;;14.20;99.90;;;;;;2057963;28;1153;-61
2021/11/07 06:47:08;;;;;;;;;;;14.20;99.90;;;;;;2062603;28;1985;-63
2021/11/07 06:48:28;;;;;;;;;;;14.10;99.90;;;;;;2075176;28;1286;-63
2021/11/07 06:49:49;;;;;;;;;;;14.10;99.90;;;;;;2076251;28;947;-63
2021/11/07 06:51:08;;;;;;;;;;;14.10;99.90;;;;;;2075942;28;850;-62
2021/11/07 06:52:28;;;;;;;;;;;14.10;99.90;;;;;;2077012;28;883;-62
2021/11/07 06:53:48;;;;;;;;;;;14.10;99.90;;;;;;2067892;28;862;-60
2021/11/07 06:55:08;;;;;;;;;;;14.10;99.90;;;;;;2075241;28;999;-60
2021/11/07 06:56:27;;;;;;;;;;;14.10;99.90;;;;;;2065026;28;899;-60
2021/11/07 06:57:47;;;;;;;;;;;14.10;99.90;;;;;;2070749;28;1128;-63
2021/11/07 06:59:06;;;;;;;;;;;14.10;99.90;;;;;;2074075;28;988;-65
2021/11/07 07:00:26;;;;;;;;;;;14.10;99.90;;;;;;2067331;28;1413;-62
2021/11/07 07:01:45;;;;;;;;;;;14.10;99.90;;;;;;2074377;28;1027;-63
2021/11/07 07:03:04;;;;;;;;;;;14.10;99.90;;;;;;2074049;28;1468;-63
2021/11/07 07:04:24;;;;;;;;;;;14.10;99.90;;;;;;2067234;28;816;-62
2021/11/07 07:05:43;;;;;;;;;;;14.10;99.90;;;;;;2067746;28;1360;-63
2021/11/07 07:07:02;;;;;;;;;;;14.10;99.90;;;;;;2071950;28;1902;-64
2021/11/07 07:08:26;;;;;;;;;;;14.10;99.90;;;;;;2066038;28;994;-64
2021/11/07 07:09:48;;;;;;;;;;;14.10;99.90;;;;;;2065608;28;1175;-62
2021/11/07 07:11:11;;;;;;;;;;;14.10;99.90;;;;;;2059124;28;1148;-62
2021/11/07 07:12:43;;;;;;;;;;;14.10;99.90;;;;;;2067672;28;1334;-62
2021/11/07 07:14:08;;;;;;;;;;;14.10;99.90;;;;;;2076154;28;1180;-63
2021/11/07 07:15:31;;;;;;;;;;;14.10;99.90;;;;;;2077360;28;1225;-59
2021/11/07 07:17:03;;;;;;;;;;;14.10;99.90;;;;;;2066433;28;1134;-62
2021/11/07 07:18:44;;;;;;;;;;;14.10;99.90;;;;;;2063767;28;1258;-64
2021/11/07 07:26:05;;;;;;;;;;;14.10;99.90;;;;;;2075724;28;1234;-58
2021/11/07 07:31:49;;;;;;;;;;;14.10;99.90;;;;;;2074608;28;1305;-62
2021/11/07 07:33:25;;;;;;;;;;;14.10;99.90;;;;;;2072526;28;1207;-62
2021/11/07 07:34:50;;;;;;;;;;;14.10;99.90;;;;;;2075224;28;1061;-61
2021/11/07 07:36:09;;;;;;;;;;;14.10;99.90;;;;;;2062947;28;1339;-62
2021/11/07 07:37:29;;;;;;;;;;;14.10;99.90;;;;;;2072860;28;1500;-63
2021/11/07 07:38:48;;;;;;;;;;;14.10;99.90;;;;;;2073592;28;1029;-65
2021/11/07 07:40:07;;;;;;;;;;;14.10;99.90;;;;;;2079650;28;1456;-64
2021/11/07 07:41:27;;;;;;;;;;;14.10;99.90;;;;;;2066623;28;971;-59
2021/11/07 07:42:47;;;;;;;;;;;14.10;99.90;;;;;;2056038;28;1206;-62
2021/11/07 07:44:08;;;;;;;;;;;14.10;99.90;;;;;;2069335;28;999;-62
2021/11/07 07:45:29;;;;;;;;;;;14.00;99.90;;;;;;2076985;28;1063;-60
2021/11/07 07:46:48;;;;;;;;;;;14.00;99.90;;;;;;2075307;28;1973;-64
2021/11/07 07:48:08;;;;;;;;;;;14.00;99.90;;;;;;2075906;28;1218;-63
2021/11/07 07:49:27;;;;;;;;;;;14.10;99.90;;;;;;2076282;28;957;-62
2021/11/07 07:50:46;;;;;;;;;;;14.10;99.90;;;;;;2067023;28;1424;-63
2021/11/07 07:52:05;;;;;;;;;;;14.10;99.90;;;;;;2060183;28;1561;-62
2021/11/07 07:53:25;;;;;;;;;;;14.10;99.90;;;;;;2070840;28;1148;-62
2021/11/07 07:54:44;;;;;;;;;;;14.10;99.90;;;;;;2075767;28;1121;-62
2021/11/07 07:56:03;;;;;;;;;;;14.20;99.90;;;;;;2075550;28;977;-61
2021/11/07 07:57:23;;;;;;;;;;;14.20;99.90;;;;;;2066873;28;1408;-61
2021/11/07 07:58:42;;;;;;;;;;;14.30;99.90;;;;;;2067144;28;972;-62
2021/11/07 08:00:02;;;;;;;;;;;14.40;99.90;;;;;;2066270;28;1020;-59
2021/11/07 08:01:31;;;;;;;;;;;14.50;99.90;;;;;;2071471;28;1319;-62
2021/11/07 08:02:50;;;;;;;;;;;14.60;99.90;;;;;;2067192;28;1205;-59
2021/11/07 08:04:09;;;;;;;;;;;14.70;99.90;;;;;;2071285;28;1293;-60
2021/11/07 08:05:28;;;;;;;;;;;14.80;99.90;;;;;;2069017;28;1204;-62
2021/11/07 08:06:48;;;;;;;;;;;14.90;99.90;;;;;;2060758;28;1934;-64
2021/11/07 08:08:07;;;;;;;;;;;14.90;99.90;;;;;;2072620;28;1108;-61
2021/11/07 08:09:26;;;;;;;;;;;15.00;99.90;;;;;;2074359;28;1174;-64
2021/11/07 08:10:46;;;;;;;;;;;15.00;99.90;;;;;;2076101;28;1909;-64
2021/11/07 08:12:06;;;;;;;;;;;15.10;99.90;;;;;;2066525;28;1324;-62
2021/11/07 08:13:25;;;;;;;;;;;15.20;99.90;;;;;;2067933;28;1361;-62
2021/11/07 08:14:45;;;;;;;;;;;15.30;99.90;;;;;;2070344;28;1305;-62
2021/11/07 08:16:04;;;;;;;;;;;15.30;99.90;;;;;;2071991;28;1248;-65
2021/11/07 08:17:23;;;;;;;;;;;15.40;99.90;;;;;;2064518;28;1171;-64
2021/11/07 08:18:43;;;;;;;;;;;15.50;99.90;;;;;;2069271;28;1219;-62
2021/11/07 08:20:05;;;;;;;;;;;15.50;99.90;;;;;;2065546;28;1273;-64
2021/11/07 08:21:26;;;;;;;;;;;15.60;99.90;;;;;;2068011;28;1080;-64
2021/11/07 08:22:46;;;;;;;;;;;15.60;99.90;;;;;;2064529;28;1127;-62
2021/11/07 08:24:06;;;;;;;;;;;15.60;99.90;;;;;;2061002;28;1255;-62
2021/11/07 08:25:26;;;;;;;;;;;15.70;99.90;;;;;;2061822;28;1721;-64
2021/11/07 08:26:46;;;;;;;;;;;15.70;99.90;;;;;;2069868;28;1898;-63
2021/11/07 08:28:06;;;;;;;;;;;15.60;99.90;;;;;;2073472;28;1146;-63
2021/11/07 08:29:26;;;;;;;;;;;15.70;99.90;;;;;;2066218;28;1186;-62
2021/11/07 08:30:46;;;;;;;;;;;15.60;99.90;;;;;;2070517;28;1524;-64
2021/11/07 08:32:05;;;;;;;;;;;15.60;99.90;;;;;;2065024;28;1377;-63